Time;durP1;ratioP1;P1;durP2;ratioP2;P2;SDS_P1;SDS_P2;PMS_P1;PMS_P2;Temp;Humidity;BMP_temperature;BMP_pressure;BME280_temperature;BME280_humidity;BME280_pressure;Samples;Min_cycle;Max_cycle;Signal;HPM_P1;HPM_P2
2021/10/14 00:01:59;;;;;;;21.30;13.80;;;;;;;5.10;92.02;97162.42;115467;1199;28886;-88
2021/10/14 00:04:27;;;;;;;21.20;13.80;;;;;;;5.10;91.94;97163.52;115439;1199;28578;-88
2021/10/14 00:06:55;;;;;;;21.80;13.60;;;;;;;5.09;91.99;97165.36;115648;1198;26488;-88
2021/10/14 00:09:23;;;;;;;20.30;14.40;;;;;;;5.09;92.00;97166.77;115621;1192;29586;-88
2021/10/14 00:11:52;;;;;;;21.80;14.70;;;;;;;5.10;91.96;97165.02;115610;1198;27302;-89
2021/10/14 00:14:20;;;;;;;20.10;14.10;;;;;;;5.09;91.84;97164.46;115407;1199;28146;-88
2021/10/14 00:16:48;;;;;;;19.70;14.40;;;;;;;5.08;91.91;97169.48;115454;1184;27554;-88
2021/10/14 00:19:17;;;;;;;20.40;14.50;;;;;;;5.08;91.94;97165.70;115390;1198;32928;-89
2021/10/14 00:21:45;;;;;;;19.50;14.10;;;;;;;5.08;91.95;97169.90;115446;1198;26860;-89
2021/10/14 00:24:13;;;;;;;23.80;15.10;;;;;;;5.08;92.32;97172.33;115417;1199;28895;-88
2021/10/14 00:26:41;;;;;;;20.00;14.20;;;;;;;5.07;92.04;97167.92;115404;1199;28539;-89
2021/10/14 00:29:09;;;;;;;17.40;13.10;;;;;;;5.07;92.02;97167.23;115459;1199;28293;-89
2021/10/14 00:31:37;;;;;;;17.30;13.60;;;;;;;5.08;91.93;97166.02;115378;1199;27197;-89
2021/10/14 00:34:05;;;;;;;19.70;14.50;;;;;;;5.09;92.00;97171.90;115394;1199;28302;-89
2021/10/14 00:36:33;;;;;;;20.50;14.70;;;;;;;5.10;91.89;97173.94;115423;1199;28805;-90
2021/10/14 00:39:02;;;;;;;17.90;13.00;;;;;;;5.11;91.68;97173.75;115560;1192;28753;-89
2021/10/14 00:41:31;;;;;;;19.80;13.50;;;;;;;5.12;91.56;97172.93;115499;1199;28675;-88
2021/10/14 00:44:00;;;;;;;18.80;13.30;;;;;;;5.13;91.52;97177.77;115373;1199;39823;-88
2021/10/14 00:46:28;;;;;;;20.10;13.50;;;;;;;5.14;91.17;97177.29;115498;1198;45078;-88
2021/10/14 00:48:56;;;;;;;20.10;13.50;;;;;;;5.16;91.16;97175.27;115444;1199;31208;-88
2021/10/14 00:51:24;;;;;;;16.20;12.20;;;;;;;5.15;91.14;97170.04;115522;1198;36899;-88
2021/10/14 00:53:52;;;;;;;17.70;13.20;;;;;;;5.12;91.09;97171.35;115658;1192;29295;-88
2021/10/14 00:56:21;;;;;;;17.50;12.90;;;;;;;5.15;91.22;97170.61;115479;1199;27285;-89
2021/10/14 00:58:49;;;;;;;17.10;11.60;;;;;;;5.19;91.03;97171.95;115483;1199;27088;-89
2021/10/14 01:01:17;;;;;;;14.70;11.90;;;;;;;5.17;91.04;97169.45;115479;1198;26094;-88
2021/10/14 01:03:45;;;;;;;21.60;13.80;;;;;;;5.15;90.88;97170.61;115453;1199;28977;-89
2021/10/14 01:06:13;;;;;;;20.90;13.30;;;;;;;5.17;90.97;97173.80;115517;1198;34832;-89
2021/10/14 01:08:41;;;;;;;19.20;12.20;;;;;;;5.14;90.76;97176.33;115409;1199;31621;-89
2021/10/14 01:11:11;;;;;;;17.60;12.40;;;;;;;5.10;90.74;97182.35;115436;1199;33603;-89
2021/10/14 01:13:39;;;;;;;14.20;8.80;;;;;;;5.06;90.60;97179.38;115469;1191;28966;-89
2021/10/14 01:16:07;;;;;;;19.70;13.00;;;;;;;5.07;90.64;97184.05;115517;1198;31268;-89
2021/10/14 01:18:35;;;;;;;17.60;13.00;;;;;;;5.03;90.58;97181.12;115547;1199;27499;-89
2021/10/14 01:21:03;;;;;;;20.50;14.10;;;;;;;5.05;90.76;97178.13;115345;1199;31695;-89
2021/10/14 01:23:31;;;;;;;17.80;12.90;;;;;;;5.07;90.84;97180.30;115519;1198;32181;-89
2021/10/14 01:26:00;;;;;;;18.10;13.30;;;;;;;5.09;90.76;97183.02;115510;1199;28882;-89
2021/10/14 01:28:27;;;;;;;17.30;12.40;;;;;;;5.10;90.72;97178.46;115523;1198;27137;-89
2021/10/14 01:30:55;;;;;;;21.10;13.60;;;;;;;5.10;91.01;97177.39;115615;1192;27507;-88
2021/10/14 01:33:23;;;;;;;19.30;14.00;;;;;;;5.08;90.84;97178.05;115567;1199;27942;-89
2021/10/14 01:35:52;;;;;;;19.60;13.90;;;;;;;5.09;90.89;97175.06;115645;1198;26829;-89
2021/10/14 01:38:20;;;;;;;20.80;15.30;;;;;;;5.09;90.75;97174.97;115552;1198;27995;-89
2021/10/14 01:40:48;;;;;;;17.60;12.50;;;;;;;5.07;90.59;97181.70;115398;1192;30448;-89
2021/10/14 01:43:16;;;;;;;18.00;13.10;;;;;;;5.01;90.45;97181.71;115474;1198;28612;-89
2021/10/14 01:45:45;;;;;;;16.30;11.80;;;;;;;4.97;90.53;97181.11;115568;1198;28041;-88
2021/10/14 01:48:13;;;;;;;18.80;13.90;;;;;;;4.93;90.44;97178.39;115504;1199;27636;-88
2021/10/14 01:50:42;;;;;;;19.80;13.70;;;;;;;4.90;90.64;97179.99;115478;1198;28494;-88
2021/10/14 01:53:10;;;;;;;18.10;12.70;;;;;;;4.89;90.68;97182.33;115533;1198;30428;-88
2021/10/14 01:55:40;;;;;;;19.50;13.90;;;;;;;4.88;90.64;97183.98;115356;1199;27225;-88
2021/10/14 01:58:08;;;;;;;20.70;13.50;;;;;;;4.88;90.68;97187.55;115594;1198;26358;-88
2021/10/14 02:00:36;;;;;;;22.80;13.20;;;;;;;4.93;90.86;97182.84;115303;1199;26722;-90
2021/10/14 02:03:05;;;;;;;20.70;15.10;;;;;;;4.96;91.05;97183.71;115250;1199;30910;-88
2021/10/14 02:05:34;;;;;;;18.20;14.10;;;;;;;4.97;90.98;97180.41;115370;1199;29607;-88
2021/10/14 02:08:02;;;;;;;21.00;14.30;;;;;;;4.97;91.14;97180.42;115483;1198;26772;-89
2021/10/14 02:10:31;;;;;;;20.20;13.80;;;;;;;4.96;90.97;97181.34;115523;1198;32020;-88
2021/10/14 02:12:59;;;;;;;20.80;14.40;;;;;;;4.94;91.14;97183.41;115453;1199;27144;-89
2021/10/14 02:15:28;;;;;;;22.70;15.80;;;;;;;4.92;90.85;97186.45;115479;1199;27765;-90
2021/10/14 02:17:57;;;;;;;22.70;14.30;;;;;;;4.93;90.91;97188.57;115522;1193;27723;-89
2021/10/14 02:20:26;;;;;;;22.20;16.60;;;;;;;4.94;90.85;97188.70;115558;1199;32228;-88
2021/10/14 02:22:54;;;;;;;23.80;16.90;;;;;;;4.92;90.84;97188.74;115506;1198;35204;-89
2021/10/14 02:25:22;;;;;;;21.90;15.10;;;;;;;4.93;90.98;97191.16;115569;1193;26153;-89
2021/10/14 02:27:51;;;;;;;21.00;14.30;;;;;;;4.93;90.78;97192.20;115556;1199;25573;-88
2021/10/14 02:30:19;;;;;;;20.40;14.20;;;;;;;4.90;90.66;97192.38;115553;1192;35868;-89
2021/10/14 02:32:47;;;;;;;20.40;13.70;;;;;;;4.91;90.68;97195.39;115530;1198;26779;-89
2021/10/14 02:35:16;;;;;;;21.10;15.30;;;;;;;4.93;90.71;97198.36;115456;1199;30889;-89
2021/10/14 02:37:44;;;;;;;21.60;16.20;;;;;;;4.92;90.51;97200.27;115490;1198;31436;-89
2021/10/14 02:40:13;;;;;;;21.80;15.80;;;;;;;4.91;90.59;97203.64;115531;1192;26152;-88
2021/10/14 02:42:42;;;;;;;21.50;16.60;;;;;;;4.93;90.68;97205.27;115564;1198;26605;-89
2021/10/14 02:45:10;;;;;;;22.70;15.80;;;;;;;4.97;90.68;97208.73;115512;1199;29256;-89
2021/10/14 02:47:38;;;;;;;22.30;16.70;;;;;;;5.00;90.77;97210.03;115484;1199;27060;-89
2021/10/14 02:50:08;;;;;;;22.80;15.30;;;;;;;5.01;90.82;97206.19;115429;1198;27333;-90
2021/10/14 02:52:36;;;;;;;25.10;16.20;;;;;;;5.02;90.83;97207.06;115444;1199;29951;-88
2021/10/14 02:55:06;;;;;;;21.70;15.70;;;;;;;4.99;90.81;97204.58;115506;1192;30015;-89
2021/10/14 02:57:35;;;;;;;22.40;15.60;;;;;;;4.95;90.97;97206.98;115485;1192;43549;-89
2021/10/14 03:00:06;;;;;;;20.00;14.80;;;;;;;4.93;91.08;97208.18;115431;1198;30190;-88
2021/10/14 03:02:35;;;;;;;19.80;14.50;;;;;;;4.91;91.11;97207.75;115490;1199;29011;-89
2021/10/14 03:05:04;;;;;;;18.90;13.30;;;;;;;4.89;91.15;97212.28;115515;1198;32571;-89
2021/10/14 03:07:32;;;;;;;19.40;14.20;;;;;;;4.90;91.25;97214.72;115346;1199;31665;-89
2021/10/14 03:10:00;;;;;;;23.30;15.30;;;;;;;4.91;91.42;97212.40;115413;1199;27367;-88
2021/10/14 03:12:29;;;;;;;26.00;17.70;;;;;;;4.92;91.29;97213.61;115438;1192;27886;-88
2021/10/14 03:14:57;;;;;;;26.70;19.20;;;;;;;4.94;91.38;97215.05;115387;1199;28566;-89
2021/10/14 03:17:26;;;;;;;24.50;18.00;;;;;;;4.94;91.29;97220.66;115449;1198;26706;-89
2021/10/14 03:19:54;;;;;;;26.00;17.90;;;;;;;4.97;91.33;97223.92;115401;1199;27648;-89
2021/10/14 03:22:22;;;;;;;24.40;17.70;;;;;;;5.00;91.29;97224.80;115551;1199;28735;-89
2021/10/14 03:24:51;;;;;;;26.60;18.20;;;;;;;5.02;91.12;97228.09;115429;1199;28478;-87
2021/10/14 03:27:19;;;;;;;26.50;19.20;;;;;;;5.03;91.18;97225.91;115440;1199;29295;-88
2021/10/14 03:29:48;;;;;;;27.70;19.60;;;;;;;5.04;91.16;97229.13;115441;1199;28756;-88
2021/10/14 03:32:16;;;;;;;28.20;18.70;;;;;;;5.05;91.34;97228.15;115375;1199;29174;-87
2021/10/14 03:34:44;;;;;;;25.90;18.60;;;;;;;5.04;91.26;97229.86;115471;1193;27308;-89
2021/10/14 03:37:13;;;;;;;26.50;19.00;;;;;;;5.03;91.04;97231.58;115413;1199;28055;-89
2021/10/14 03:39:41;;;;;;;26.90;18.10;;;;;;;5.06;91.11;97235.89;115521;1198;29610;-89
2021/10/14 03:42:09;;;;;;;24.30;17.40;;;;;;;5.06;91.16;97237.34;115253;1194;28055;-88
2021/10/14 03:44:37;;;;;;;22.90;17.20;;;;;;;5.07;90.99;97234.51;115465;1198;27288;-88
2021/10/14 03:47:05;;;;;;;25.00;18.30;;;;;;;5.08;91.09;97234.19;115433;1192;25443;-88
2021/10/14 03:49:33;;;;;;;23.60;16.60;;;;;;;5.09;91.18;97237.88;115527;1198;28266;-88
2021/10/14 03:52:01;;;;;;;23.60;16.60;;;;;;;5.10;91.00;97238.27;115489;1199;39981;-89
2021/10/14 03:54:29;;;;;;;22.20;17.40;;;;;;;5.10;90.88;97238.27;115443;1199;28873;-88
2021/10/14 03:56:57;;;;;;;24.60;17.00;;;;;;;5.11;91.04;97237.23;115456;1199;28072;-89
2021/10/14 03:59:25;;;;;;;24.60;17.40;;;;;;;5.14;91.06;97240.87;115527;1198;29553;-89
2021/10/14 04:01:53;;;;;;;25.80;18.00;;;;;;;5.17;91.04;97245.09;115563;1198;26559;-89
2021/10/14 04:04:23;;;;;;;22.10;15.80;;;;;;;5.20;91.12;97248.52;115470;1198;27733;-88
2021/10/14 04:06:51;;;;;;;25.20;17.50;;;;;;;5.21;90.96;97250.10;115477;1198;28217;-89
2021/10/14 04:09:19;;;;;;;24.00;16.60;;;;;;;5.21;90.84;97250.83;115384;1198;27474;-88
2021/10/14 04:11:47;;;;;;;21.80;17.40;;;;;;;5.20;90.78;97256.19;115395;1199;35840;-89
2021/10/14 04:14:15;;;;;;;24.50;16.30;;;;;;;5.21;91.01;97255.35;115421;1199;32472;-89
2021/10/14 04:16:43;;;;;;;22.80;17.20;;;;;;;5.21;90.89;97254.79;115460;1198;29732;-89
2021/10/14 04:19:11;;;;;;;29.50;20.40;;;;;;;5.19;91.01;97254.35;115384;1191;36353;-89
2021/10/14 04:21:40;;;;;;;28.50;18.90;;;;;;;5.16;90.71;97258.85;115388;1199;28668;-88
2021/10/14 04:24:08;;;;;;;27.80;20.30;;;;;;;5.13;90.68;97259.67;115435;1199;27130;-89
2021/10/14 04:26:36;;;;;;;25.90;19.20;;;;;;;5.10;90.65;97263.81;115376;1192;29792;-88
2021/10/14 04:29:04;;;;;;;24.60;18.10;;;;;;;5.09;90.55;97266.89;115450;1199;30758;-88
2021/10/14 04:31:34;;;;;;;25.90;18.60;;;;;;;5.08;90.62;97264.83;115482;1192;27956;-88
2021/10/14 04:34:02;;;;;;;22.70;13.70;;;;;;;5.04;90.44;97265.02;115345;1199;28176;-89
2021/10/14 04:36:31;;;;;;;25.50;17.70;;;;;;;5.02;90.51;97266.35;115440;1199;30171;-88
2021/10/14 04:39:00;;;;;;;25.30;17.10;;;;;;;5.03;90.42;97270.48;115488;1198;29301;-88
2021/10/14 04:41:28;;;;;;;24.60;17.20;;;;;;;5.01;90.39;97276.16;115427;1199;28341;-88
2021/10/14 04:43:56;;;;;;;22.90;15.60;;;;;;;4.98;90.25;97278.45;115480;1199;35460;-88
2021/10/14 04:46:24;;;;;;;21.30;14.80;;;;;;;4.94;90.08;97279.52;115586;1198;25549;-89
2021/10/14 04:48:52;;;;;;;21.10;15.90;;;;;;;4.92;89.99;97282.48;115571;1198;25485;-89
2021/10/14 04:51:21;;;;;;;24.30;15.60;;;;;;;4.92;89.97;97284.91;115476;1198;27095;-88
2021/10/14 04:53:49;;;;;;;21.50;16.50;;;;;;;4.93;89.86;97281.39;115490;1198;28166;-88
2021/10/14 04:56:17;;;;;;;24.30;17.30;;;;;;;4.93;89.96;97282.48;115440;1184;26210;-88
2021/10/14 04:58:45;;;;;;;21.40;15.50;;;;;;;4.93;90.15;97279.96;115408;1199;28298;-88
2021/10/14 05:01:13;;;;;;;20.90;14.40;;;;;;;4.98;90.12;97284.42;115416;1199;28813;-89
2021/10/14 05:03:43;;;;;;;21.70;15.20;;;;;;;4.99;89.84;97286.41;115450;1198;28577;-88
2021/10/14 05:06:12;;;;;;;19.70;14.40;;;;;;;5.02;89.74;97290.16;115421;1198;28077;-89
2021/10/14 05:08:40;;;;;;;22.50;15.40;;;;;;;5.05;89.73;97294.36;115378;1199;28936;-88
2021/10/14 05:11:11;;;;;;;21.70;15.50;;;;;;;5.03;89.61;97296.54;115460;1199;27662;-89
2021/10/14 05:13:39;;;;;;;21.70;15.50;;;;;;;5.00;89.42;97296.99;115415;1192;27627;-88
2021/10/14 05:16:08;;;;;;;23.40;16.00;;;;;;;4.97;89.28;97301.70;115424;1198;28124;-88
2021/10/14 05:18:36;;;;;;;20.00;15.00;;;;;;;4.87;89.01;97307.09;115494;1199;28212;-88
2021/10/14 05:21:04;;;;;;;19.30;14.50;;;;;;;4.81;89.06;97308.25;115411;1198;26954;-89
2021/10/14 05:23:33;;;;;;;22.20;16.20;;;;;;;4.77;89.21;97309.70;115465;1186;28897;-88
2021/10/14 05:26:01;;;;;;;22.60;17.70;;;;;;;4.72;89.20;97309.44;115456;1198;27839;-88
2021/10/14 05:28:30;;;;;;;22.20;15.00;;;;;;;4.70;89.35;97314.41;115315;1199;29141;-88
2021/10/14 05:30:59;;;;;;;17.90;15.20;;;;;;;4.68;89.25;97319.04;115466;1198;48079;-89
2021/10/14 05:33:28;;;;;;;20.70;14.40;;;;;;;4.68;89.39;97320.02;115453;1198;29018;-89
2021/10/14 05:35:56;;;;;;;20.60;14.70;;;;;;;4.76;89.52;97323.65;115492;1192;26922;-89
2021/10/14 05:38:25;;;;;;;24.90;15.60;;;;;;;4.72;89.24;97322.77;115482;1198;36602;-89
2021/10/14 05:40:53;;;;;;;22.20;15.40;;;;;;;4.77;89.23;97324.09;115502;1199;28203;-89
2021/10/14 05:43:21;;;;;;;19.70;14.90;;;;;;;5.04;89.29;97330.05;115455;1192;28544;-88
2021/10/14 05:45:49;;;;;;;19.60;14.10;;;;;;;5.14;88.91;97328.48;115372;1198;32085;-89
2021/10/14 05:48:17;;;;;;;16.20;12.40;;;;;;;5.31;89.11;97327.41;115367;1199;27593;-89
2021/10/14 05:50:45;;;;;;;17.00;13.10;;;;;;;5.71;89.16;97329.25;115399;1198;29447;-89
2021/10/14 05:53:13;;;;;;;17.60;11.90;;;;;;;5.95;88.54;97332.61;115354;1199;27705;-88
2021/10/14 05:55:41;;;;;;;16.90;12.50;;;;;;;6.02;87.98;97335.08;115392;1198;26419;-89
2021/10/14 05:58:10;;;;;;;15.20;11.60;;;;;;;6.11;87.66;97334.10;115460;1198;28178;-89
2021/10/14 06:00:38;;;;;;;14.40;11.10;;;;;;;6.15;87.50;97337.66;115400;1184;30584;-89
2021/10/14 06:03:06;;;;;;;14.10;9.50;;;;;;;6.18;87.33;97336.27;115381;1194;28258;-89
2021/10/14 06:05:34;;;;;;;16.40;9.10;;;;;;;6.18;87.09;97336.35;115500;1198;27905;-89
2021/10/14 06:08:03;;;;;;;12.20;8.10;;;;;;;6.10;86.82;97339.62;115276;1199;27333;-90
2021/10/14 06:10:31;;;;;;;11.70;8.80;;;;;;;5.97;86.45;97342.39;115300;1200;30112;-89
2021/10/14 06:12:59;;;;;;;12.00;9.10;;;;;;;5.99;86.51;97340.70;115404;1199;31323;-90
2021/10/14 06:15:27;;;;;;;14.50;10.90;;;;;;;6.06;86.53;97346.84;115404;1198;28216;-88
2021/10/14 06:17:55;;;;;;;18.80;13.10;;;;;;;6.16;86.63;97350.52;115403;1198;28308;-89
2021/10/14 06:20:23;;;;;;;17.60;13.50;;;;;;;7.11;87.38;97356.19;115402;1198;28120;-88
2021/10/14 06:22:51;;;;;;;16.10;12.60;;;;;;;8.36;87.22;97350.26;115355;1192;27541;-88
2021/10/14 06:25:19;;;;;;;15.90;12.00;;;;;;;9.33;85.37;97352.11;115411;1192;30144;-89
2021/10/14 06:27:48;;;;;;;14.90;11.90;;;;;;;10.32;84.10;97346.25;115375;1198;30368;-89
2021/10/14 06:30:16;;;;;;;13.40;10.10;;;;;;;11.33;82.46;97347.45;115354;1199;29154;-89
2021/10/14 06:32:44;;;;;;;13.30;10.00;;;;;;;12.00;80.50;97348.61;115357;1199;38279;-89
2021/10/14 06:35:13;;;;;;;10.40;7.40;;;;;;;12.93;79.49;97341.64;115412;1198;27587;-88
2021/10/14 06:37:41;;;;;;;11.00;7.90;;;;;;;13.85;77.87;97338.58;115345;1199;29310;-87
2021/10/14 06:40:11;;;;;;;11.90;8.50;;;;;;;14.33;75.04;97335.05;115387;1199;33665;-88
2021/10/14 06:42:39;;;;;;;10.80;8.20;;;;;;;14.75;73.66;97335.37;115434;1199;29809;-88
2021/10/14 06:45:09;;;;;;;10.00;7.30;;;;;;;15.25;73.02;97334.61;115496;1193;27245;-88
2021/10/14 06:47:37;;;;;;;10.10;7.30;;;;;;;15.89;70.85;97334.80;115521;1198;27426;-89
2021/10/14 06:50:07;;;;;;;10.80;7.20;;;;;;;16.24;69.49;97332.17;115527;1198;26560;-89
2021/10/14 06:52:35;;;;;;;8.90;6.90;;;;;;;16.37;67.21;97330.17;115523;1198;27738;-89
2021/10/14 06:55:04;;;;;;;9.60;6.00;;;;;;;16.71;66.13;97330.57;115439;1198;33226;-88
2021/10/14 06:57:32;;;;;;;7.80;5.90;;;;;;;16.68;64.02;97330.52;115462;1198;27743;-88
2021/10/14 07:00:06;;;;;;;8.80;5.60;;;;;;;16.95;64.01;97329.73;115353;1200;29729;-88
2021/10/14 07:02:34;;;;;;;9.40;6.60;;;;;;;17.24;61.86;97328.30;115547;1198;27057;-89
2021/10/14 07:05:03;;;;;;;10.40;7.20;;;;;;;17.31;61.44;97330.66;115457;1199;26941;-88
2021/10/14 07:07:31;;;;;;;11.70;8.40;;;;;;;17.16;59.30;97332.12;115470;1198;27325;-88
2021/10/14 07:09:59;;;;;;;9.30;7.10;;;;;;;16.35;58.67;97337.08;115437;1198;27608;-88
2021/10/14 07:12:28;;;;;;;10.20;6.30;;;;;;;15.01;57.57;97339.54;115334;1199;27003;-88
2021/10/14 07:14:58;;;;;;;8.00;5.40;;;;;;;13.88;59.32;97343.87;115478;1198;27281;-88
2021/10/14 07:17:26;;;;;;;8.00;5.70;;;;;;;14.42;61.64;97348.02;115424;1192;28039;-88
2021/10/14 07:19:55;;;;;;;7.60;5.10;;;;;;;15.24;60.88;97345.21;115433;1199;27068;-89
2021/10/14 07:22:23;;;;;;;7.50;4.60;;;;;;;15.64;59.99;97347.23;115186;1200;28974;-88
2021/10/14 07:24:51;;;;;;;7.50;4.80;;;;;;;15.93;59.74;97347.06;115190;1200;26486;-87
2021/10/14 07:27:19;;;;;;;7.00;4.50;;;;;;;15.86;58.05;97344.80;115438;1199;28610;-86
2021/10/14 07:29:47;;;;;;;6.50;3.50;;;;;;;15.77;58.65;97347.24;115504;1198;29108;-88
2021/10/14 07:32:16;;;;;;;4.70;3.20;;;;;;;15.99;58.62;97350.19;115464;1199;28469;-87
2021/10/14 07:34:44;;;;;;;6.00;3.40;;;;;;;15.45;55.03;97348.90;115398;1199;34076;-88
2021/10/14 07:37:13;;;;;;;5.30;3.20;;;;;;;14.66;55.98;97347.23;115488;1198;24512;-89
2021/10/14 07:39:42;;;;;;;3.90;3.20;;;;;;;14.10;55.19;97348.35;115425;1199;28179;-88
2021/10/14 07:42:10;;;;;;;5.20;3.80;;;;;;;13.88;56.73;97350.17;115453;1199;28514;-88
2021/10/14 07:44:39;;;;;;;6.00;4.00;;;;;;;13.47;56.33;97346.52;115522;1192;29704;-87
2021/10/14 07:47:08;;;;;;;5.70;3.90;;;;;;;13.07;57.20;97348.36;115553;1192;32541;-87
2021/10/14 07:49:36;;;;;;;5.60;3.90;;;;;;;12.58;57.43;97353.98;115415;1193;37209;-89
2021/10/14 07:52:05;;;;;;;7.90;4.00;;;;;;;12.81;58.92;97354.31;115552;1198;27899;-88
2021/10/14 07:54:34;;;;;;;4.70;3.20;;;;;;;13.15;58.56;97348.48;115516;1198;28907;-88
2021/10/14 07:57:02;;;;;;;6.70;4.30;;;;;;;13.11;57.71;97346.81;115425;1192;28431;-89
2021/10/14 07:59:30;;;;;;;7.50;4.20;;;;;;;12.96;58.65;97343.00;115430;1199;29752;-89
2021/10/14 08:01:58;;;;;;;6.00;4.10;;;;;;;13.00;58.60;97342.88;115447;1199;28943;-89
2021/10/14 08:04:30;;;;;;;6.10;3.80;;;;;;;13.01;58.42;97345.53;115374;1194;30129;-89
2021/10/14 08:06:59;;;;;;;6.50;4.40;;;;;;;12.90;58.33;97346.55;115334;1199;30113;-89
2021/10/14 08:09:27;;;;;;;7.10;4.50;;;;;;;12.60;56.62;97346.80;115392;1199;29267;-88
2021/10/14 08:11:55;;;;;;;5.60;3.90;;;;;;;12.06;57.02;97352.61;115403;1197;28303;-89
2021/10/14 08:14:24;;;;;;;4.80;3.40;;;;;;;11.97;57.51;97353.27;115382;1192;28206;-87
2021/10/14 08:16:52;;;;;;;4.10;2.90;;;;;;;11.88;57.41;97352.42;115480;1198;27695;-88
2021/10/14 08:19:20;;;;;;;5.30;3.60;;;;;;;11.73;57.53;97352.41;115418;1184;26950;-87
2021/10/14 08:21:48;;;;;;;5.80;3.10;;;;;;;11.59;57.67;97348.80;115310;1195;28721;-88
2021/10/14 08:24:17;;;;;;;4.40;3.10;;;;;;;11.48;58.46;97346.09;115287;1193;30533;-88
2021/10/14 08:26:45;;;;;;;4.80;2.50;;;;;;;11.36;57.90;97347.05;115267;1199;32487;-88
2021/10/14 08:29:13;;;;;;;4.10;2.70;;;;;;;11.19;57.55;97346.08;115344;1192;30893;-88
2021/10/14 08:31:42;;;;;;;6.10;3.00;;;;;;;11.07;58.08;97343.40;115358;1199;27780;-88
2021/10/14 08:34:10;;;;;;;4.20;2.80;;;;;;;11.17;58.79;97346.59;115416;1198;27226;-87
2021/10/14 08:36:40;;;;;;;3.60;2.70;;;;;;;11.18;57.66;97345.65;115464;1199;28389;-87
2021/10/14 08:39:09;;;;;;;3.50;2.50;;;;;;;10.97;57.81;97349.01;115473;1184;26726;-87
2021/10/14 08:41:39;;;;;;;4.00;2.50;;;;;;;10.83;57.58;97346.69;115507;1199;33088;-87
2021/10/14 08:44:08;;;;;;;3.10;2.10;;;;;;;10.54;57.25;97343.20;115488;1199;35248;-87
2021/10/14 08:46:37;;;;;;;3.70;2.30;;;;;;;10.26;57.87;97343.80;115548;1192;33838;-87
2021/10/14 08:49:08;;;;;;;4.20;2.70;;;;;;;10.16;58.36;97343.64;115467;1184;26643;-87
2021/10/14 08:51:36;;;;;;;5.10;2.80;;;;;;;10.08;58.54;97342.31;115498;1199;25464;-87
2021/10/14 08:54:05;;;;;;;4.10;2.70;;;;;;;9.99;59.04;97339.98;115498;1199;32318;-88
2021/10/14 08:56:33;;;;;;;4.40;2.40;;;;;;;9.98;59.17;97337.86;115460;1199;25561;-87
2021/10/14 08:59:02;;;;;;;4.80;3.20;;;;;;;9.81;58.97;97337.86;115280;1200;26144;-87
2021/10/14 09:01:30;;;;;;;3.80;2.50;;;;;;;9.59;59.12;97335.00;115383;1192;31921;-87
2021/10/14 09:03:58;;;;;;;3.40;2.30;;;;;;;9.28;59.36;97343.06;115397;1199;28070;-86
2021/10/14 09:06:26;;;;;;;4.60;2.40;;;;;;;9.15;59.78;97345.27;115390;1199;29826;-87
2021/10/14 09:08:54;;;;;;;4.80;3.00;;;;;;;8.98;59.84;97343.69;115390;1199;26406;-88
2021/10/14 09:11:27;;;;;;;4.50;2.70;;;;;;;8.78;60.27;97340.73;115276;1200;27891;-86
2021/10/14 09:13:57;;;;;;;4.60;2.40;;;;;;;8.64;60.61;97335.82;115387;1199;27452;-86
2021/10/14 09:16:30;;;;;;;7.10;2.40;;;;;;;8.61;60.97;97340.50;115442;1199;31644;-87
2021/10/14 09:19:14;;;;;;;4.50;2.70;;;;;;;8.54;61.05;97347.23;115412;1199;26765;-87
2021/10/14 09:21:45;;;;;;;4.70;2.80;;;;;;;8.45;61.33;97344.96;115395;1192;28116;-87
2021/10/14 09:24:32;;;;;;;3.50;2.50;;;;;;;8.45;61.95;97343.11;115407;1198;29245;-87
2021/10/14 09:27:03;;;;;;;4.20;2.50;;;;;;;8.39;61.81;97340.70;115434;1199;34555;-87
2021/10/14 09:29:33;;;;;;;3.30;2.40;;;;;;;8.56;62.33;97336.20;115293;1200;31329;-87
2021/10/14 09:32:05;;;;;;;4.40;2.60;;;;;;;8.84;62.97;97340.00;115363;1199;25361;-87
2021/10/14 09:34:39;;;;;;;5.30;2.50;;;;;;;9.04;62.38;97340.09;115462;1199;26826;-86
2021/10/14 09:37:26;;;;;;;5.00;3.10;;;;;;;9.02;61.70;97339.33;115476;1199;26007;-87
2021/10/14 09:39:57;;;;;;;5.30;2.90;;;;;;;9.06;62.21;97338.27;115433;1199;42411;-86
2021/10/14 09:42:44;;;;;;;5.10;3.10;;;;;;;9.34;62.73;97338.73;115427;1198;27529;-86
2021/10/14 09:45:27;;;;;;;4.30;3.20;;;;;;;9.52;61.83;97341.46;115497;1199;26012;-86
2021/10/14 09:48:11;;;;;;;4.10;2.80;;;;;;;9.65;61.80;97341.98;115502;1198;28363;-87
2021/10/14 09:50:43;;;;;;;4.60;2.80;;;;;;;9.87;61.46;97336.80;115515;1193;41986;-87
2021/10/14 09:53:14;;;;;;;4.60;3.20;;;;;;;9.91;61.24;97343.11;115367;1199;30667;-87
2021/10/14 09:55:43;;;;;;;3.70;2.30;;;;;;;10.02;61.26;97337.93;115452;1198;26559;-86
2021/10/14 09:58:13;;;;;;;5.60;2.50;;;;;;;10.26;60.67;97336.92;115507;1198;34196;-86
2021/10/14 10:00:43;;;;;;;5.30;2.70;;;;;;;10.29;59.99;97333.61;115524;1198;26888;-86
2021/10/14 10:03:14;;;;;;;4.50;2.30;;;;;;;10.27;59.99;97333.16;115347;1199;24904;-86
2021/10/14 10:05:47;;;;;;;2.90;2.20;;;;;;;10.43;60.88;97332.08;115496;1199;31851;-87
2021/10/14 10:08:27;;;;;;;3.30;2.30;;;;;;;10.61;59.66;97326.36;115471;1199;27606;-86
2021/10/14 10:10:59;;;;;;;5.00;2.40;;;;;;;10.51;58.30;97324.69;115496;1198;39919;-86
2021/10/14 10:13:30;;;;;;;3.30;1.60;;;;;;;10.36;58.24;97328.33;115495;1199;25158;-86
2021/10/14 10:16:14;;;;;;;3.20;2.10;;;;;;;10.38;58.04;97323.46;115244;1200;27614;-86
2021/10/14 10:18:42;;;;;;;3.30;1.80;;;;;;;10.39;58.56;97325.33;115421;1199;25045;-86
2021/10/14 10:21:42;;;;;;;5.00;1.50;;;;;;;10.49;58.48;97322.13;115484;1199;26163;-86
2021/10/14 10:24:32;;;;;;;3.50;2.00;;;;;;;10.65;58.07;97320.53;115488;1198;32409;-86
2021/10/14 10:27:01;;;;;;;;;;;;;;;10.74;57.66;97317.81;115510;1199;28888;-86
2021/10/14 10:29:46;;;;;;;3.10;1.90;;;;;;;10.75;57.36;97312.56;115197;1200;27780;-87
2021/10/14 10:32:26;;;;;;;1.80;1.60;;;;;;;10.79;57.25;97310.44;115501;1199;27209;-87
2021/10/14 10:35:09;;;;;;;1.80;1.40;;;;;;;10.74;56.45;97310.77;115351;1199;24229;-87
2021/10/14 10:37:50;;;;;;;2.60;1.60;;;;;;;10.68;54.38;97308.67;115447;1199;27112;-86
2021/10/14 10:40:22;;;;;;;2.20;1.40;;;;;;;10.56;53.65;97304.55;115135;1200;25610;-86
2021/10/14 10:42:56;;;;;;;2.60;1.60;;;;;;;10.50;53.36;97303.84;115424;1199;24922;-87
2021/10/14 10:45:26;;;;;;;3.60;1.60;;;;;;;10.42;53.20;97301.59;115388;1199;27616;-86
2021/10/14 10:48:01;;;;;;;2.10;1.60;;;;;;;10.44;53.07;97299.05;115391;1193;26165;-86
2021/10/14 10:50:44;;;;;;;3.40;2.00;;;;;;;10.50;52.97;97299.07;115420;1197;27135;-84
2021/10/14 10:53:15;;;;;;;1.50;1.30;;;;;;;10.51;52.62;97298.91;115361;1199;24476;-86
2021/10/14 10:55:46;;;;;;;2.80;1.70;;;;;;;10.46;51.58;97290.68;115538;1198;26497;-86
2021/10/14 10:58:16;;;;;;;3.20;1.50;;;;;;;10.44;51.92;97293.97;115574;1192;26078;-86
2021/10/14 11:00:45;;;;;;;1.80;1.50;;;;;;;10.50;51.61;97289.68;115507;1199;26230;-86
2021/10/14 11:03:19;;;;;;;2.00;1.60;;;;;;;10.58;51.43;97289.02;115258;1193;29726;-86
2021/10/14 11:05:50;;;;;;;2.60;1.30;;;;;;;10.61;50.64;97286.75;115396;1199;24890;-86
2021/10/14 11:08:20;;;;;;;2.40;1.30;;;;;;;10.70;51.19;97283.48;115302;1200;26268;-86
2021/10/14 11:10:53;;;;;;;1.90;1.40;;;;;;;10.83;51.65;97281.70;115094;1188;29311;-86
2021/10/14 11:13:22;;;;;;;3.60;1.80;;;;;;;10.92;50.35;97274.55;115371;1194;26983;-86
2021/10/14 11:15:52;;;;;;;2.20;1.50;;;;;;;10.87;49.49;97266.86;115431;1199;24330;-86
2021/10/14 11:18:22;;;;;;;2.10;1.40;;;;;;;10.80;49.56;97266.36;115389;1199;26287;-85
2021/10/14 11:20:53;;;;;;;2.90;1.80;;;;;;;10.79;49.66;97260.21;115409;1199;27894;-86
2021/10/14 11:23:23;;;;;;;3.10;1.60;;;;;;;10.80;49.46;97258.94;115229;1200;26183;-86
2021/10/14 11:26:06;;;;;;;2.80;1.50;;;;;;;10.86;49.95;97253.39;115568;1199;26298;-86
2021/10/14 11:28:53;;;;;;;2.60;1.70;;;;;;;10.88;50.07;97254.82;115472;1199;27465;-86
2021/10/14 11:31:28;;;;;;;2.40;1.60;;;;;;;11.00;50.82;97250.73;115462;1193;30213;-86
2021/10/14 11:34:04;;;;;;;1.70;1.40;;;;;;;11.16;50.56;97249.20;115508;1199;26885;-86